sensor_id;sensor_type;location;lat;lon;timestamp;P1;durP1;ratioP1;P2;durP2;ratioP2
14736;SDS011;7459;53.590;10.062;2023-04-28T00:00:27;11.48;;;6.28;;
14736;SDS011;7459;53.590;10.062;2023-04-28T00:02:53;14.02;;;6.50;;
14736;SDS011;7459;53.590;10.062;2023-04-28T00:05:19;13.05;;;6.20;;
14736;SDS011;7459;53.590;10.062;2023-04-28T00:07:46;13.80;;;6.97;;
14736;SDS011;7459;53.590;10.062;2023-04-28T00:10:12;14.32;;;6.95;;
14736;SDS011;7459;53.590;10.062;2023-04-28T00:12:38;12.93;;;6.43;;
14736;SDS011;7459;53.590;10.062;2023-04-28T00:15:04;13.82;;;6.82;;
14736;SDS011;7459;53.590;10.062;2023-04-28T00:17:30;15.60;;;7.10;;
14736;SDS011;7459;53.590;10.062;2023-04-28T00:19:56;17.98;;;7.85;;
14736;SDS011;7459;53.590;10.062;2023-04-28T00:22:22;14.55;;;6.97;;
14736;SDS011;7459;53.590;10.062;2023-04-28T00:24:48;14.73;;;7.23;;
14736;SDS011;7459;53.590;10.062;2023-04-28T00:27:14;13.07;;;6.88;;
14736;SDS011;7459;53.590;10.062;2023-04-28T00:29:39;12.00;;;5.93;;
14736;SDS011;7459;53.590;10.062;2023-04-28T00:32:05;13.52;;;6.32;;
14736;SDS011;7459;53.590;10.062;2023-04-28T00:34:31;15.57;;;6.73;;
14736;SDS011;7459;53.590;10.062;2023-04-28T00:36:57;11.23;;;5.53;;
14736;SDS011;7459;53.590;10.062;2023-04-28T00:39:23;13.50;;;5.73;;
14736;SDS011;7459;53.590;10.062;2023-04-28T00:41:50;11.52;;;6.00;;
14736;SDS011;7459;53.590;10.062;2023-04-28T00:44:16;12.00;;;6.10;;
14736;SDS011;7459;53.590;10.062;2023-04-28T00:46:42;13.27;;;6.70;;
14736;SDS011;7459;53.590;10.062;2023-04-28T00:49:08;13.15;;;5.85;;
14736;SDS011;7459;53.590;10.062;2023-04-28T00:51:34;13.77;;;6.30;;
14736;SDS011;7459;53.590;10.062;2023-04-28T00:54:00;12.60;;;7.13;;
14736;SDS011;7459;53.590;10.062;2023-04-28T00:56:27;16.55;;;6.95;;
14736;SDS011;7459;53.590;10.062;2023-04-28T00:58:55;13.60;;;6.28;;
14736;SDS011;7459;53.590;10.062;2023-04-28T01:01:21;16.98;;;6.78;;
14736;SDS011;7459;53.590;10.062;2023-04-28T01:03:47;15.70;;;6.25;;
14736;SDS011;7459;53.590;10.062;2023-04-28T01:06:13;12.18;;;6.40;;
14736;SDS011;7459;53.590;10.062;2023-04-28T01:08:40;12.45;;;5.82;;
14736;SDS011;7459;53.590;10.062;2023-04-28T01:11:06;13.10;;;5.63;;
14736;SDS011;7459;53.590;10.062;2023-04-28T01:13:34;12.15;;;4.97;;
14736;SDS011;7459;53.590;10.062;2023-04-28T01:16:00;12.23;;;5.22;;
14736;SDS011;7459;53.590;10.062;2023-04-28T01:18:26;10.00;;;5.00;;
14736;SDS011;7459;53.590;10.062;2023-04-28T01:20:52;14.10;;;5.87;;
14736;SDS011;7459;53.590;10.062;2023-04-28T01:23:18;14.23;;;5.15;;
14736;SDS011;7459;53.590;10.062;2023-04-28T01:25:43;11.97;;;5.20;;
14736;SDS011;7459;53.590;10.062;2023-04-28T01:28:10;14.65;;;5.78;;
14736;SDS011;7459;53.590;10.062;2023-04-28T01:30:36;12.82;;;5.65;;
14736;SDS011;7459;53.590;10.062;2023-04-28T01:33:02;12.03;;;5.07;;
14736;SDS011;7459;53.590;10.062;2023-04-28T01:35:28;12.52;;;5.32;;
14736;SDS011;7459;53.590;10.062;2023-04-28T01:37:54;13.88;;;5.53;;
14736;SDS011;7459;53.590;10.062;2023-04-28T01:40:20;13.83;;;5.37;;
14736;SDS011;7459;53.590;10.062;2023-04-28T01:42:46;12.90;;;5.50;;
14736;SDS011;7459;53.590;10.062;2023-04-28T01:45:11;12.23;;;5.40;;
14736;SDS011;7459;53.590;10.062;2023-04-28T01:47:37;10.82;;;5.22;;
14736;SDS011;7459;53.590;10.062;2023-04-28T01:50:03;14.47;;;6.37;;
14736;SDS011;7459;53.590;10.062;2023-04-28T01:52:30;12.18;;;5.35;;
14736;SDS011;7459;53.590;10.062;2023-04-28T01:54:55;13.25;;;5.80;;
14736;SDS011;7459;53.590;10.062;2023-04-28T01:57:21;14.70;;;6.27;;
14736;SDS011;7459;53.590;10.062;2023-04-28T02:02:23;11.45;;;5.40;;
14736;SDS011;7459;53.590;10.062;2023-04-28T02:04:48;10.20;;;5.07;;
14736;SDS011;7459;53.590;10.062;2023-04-28T02:07:14;12.98;;;5.03;;
14736;SDS011;7459;53.590;10.062;2023-04-28T02:09:40;13.83;;;6.00;;
14736;SDS011;7459;53.590;10.062;2023-04-28T02:12:05;11.63;;;5.22;;
14736;SDS011;7459;53.590;10.062;2023-04-28T02:14:32;11.90;;;5.30;;
14736;SDS011;7459;53.590;10.062;2023-04-28T02:16:58;12.40;;;5.43;;
14736;SDS011;7459;53.590;10.062;2023-04-28T02:19:23;12.32;;;5.22;;
14736;SDS011;7459;53.590;10.062;2023-04-28T02:21:49;14.80;;;5.30;;
14736;SDS011;7459;53.590;10.062;2023-04-28T02:24:15;12.35;;;5.13;;
14736;SDS011;7459;53.590;10.062;2023-04-28T02:26:41;12.00;;;4.88;;
14736;SDS011;7459;53.590;10.062;2023-04-28T02:29:07;11.13;;;5.95;;
14736;SDS011;7459;53.590;10.062;2023-04-28T02:31:32;13.07;;;5.40;;
14736;SDS011;7459;53.590;10.062;2023-04-28T02:33:58;10.20;;;5.07;;
14736;SDS011;7459;53.590;10.062;2023-04-28T02:36:24;10.93;;;5.30;;
14736;SDS011;7459;53.590;10.062;2023-04-28T02:38:51;14.10;;;5.25;;
14736;SDS011;7459;53.590;10.062;2023-04-28T02:41:17;10.30;;;5.15;;
14736;SDS011;7459;53.590;10.062;2023-04-28T02:43:43;10.67;;;5.50;;
14736;SDS011;7459;53.590;10.062;2023-04-28T02:46:08;12.55;;;5.55;;
14736;SDS011;7459;53.590;10.062;2023-04-28T02:48:35;11.48;;;6.07;;
14736;SDS011;7459;53.590;10.062;2023-04-28T02:51:01;10.60;;;4.88;;
14736;SDS011;7459;53.590;10.062;2023-04-28T02:53:27;11.95;;;5.28;;
14736;SDS011;7459;53.590;10.062;2023-04-28T02:55:53;12.95;;;5.13;;
14736;SDS011;7459;53.590;10.062;2023-04-28T02:58:18;11.03;;;5.03;;
14736;SDS011;7459;53.590;10.062;2023-04-28T03:00:44;12.82;;;5.32;;
14736;SDS011;7459;53.590;10.062;2023-04-28T03:03:11;10.77;;;5.22;;
14736;SDS011;7459;53.590;10.062;2023-04-28T03:05:37;14.10;;;5.43;;
14736;SDS011;7459;53.590;10.062;2023-04-28T03:08:03;13.40;;;5.50;;
14736;SDS011;7459;53.590;10.062;2023-04-28T03:10:29;12.48;;;5.63;;
14736;SDS011;7459;53.590;10.062;2023-04-28T03:12:55;11.27;;;5.00;;
14736;SDS011;7459;53.590;10.062;2023-04-28T03:15:20;10.55;;;5.60;;
14736;SDS011;7459;53.590;10.062;2023-04-28T03:17:46;10.93;;;5.57;;
14736;SDS011;7459;53.590;10.062;2023-04-28T03:20:12;12.60;;;5.50;;
14736;SDS011;7459;53.590;10.062;2023-04-28T03:22:38;11.27;;;5.87;;
14736;SDS011;7459;53.590;10.062;2023-04-28T03:25:03;11.10;;;5.20;;
14736;SDS011;7459;53.590;10.062;2023-04-28T03:27:30;11.75;;;5.10;;
14736;SDS011;7459;53.590;10.062;2023-04-28T03:29:55;9.77;;;4.67;;
14736;SDS011;7459;53.590;10.062;2023-04-28T03:32:21;11.60;;;4.90;;
14736;SDS011;7459;53.590;10.062;2023-04-28T03:34:47;9.93;;;5.13;;
14736;SDS011;7459;53.590;10.062;2023-04-28T03:37:13;11.20;;;5.68;;
14736;SDS011;7459;53.590;10.062;2023-04-28T03:39:38;10.80;;;4.90;;
14736;SDS011;7459;53.590;10.062;2023-04-28T03:42:04;10.80;;;5.15;;
14736;SDS011;7459;53.590;10.062;2023-04-28T03:44:30;11.18;;;4.78;;
14736;SDS011;7459;53.590;10.062;2023-04-28T03:46:55;10.47;;;4.83;;
14736;SDS011;7459;53.590;10.062;2023-04-28T03:49:21;8.77;;;4.38;;
14736;SDS011;7459;53.590;10.062;2023-04-28T03:51:47;11.77;;;4.80;;
14736;SDS011;7459;53.590;10.062;2023-04-28T03:54:15;13.27;;;5.13;;
14736;SDS011;7459;53.590;10.062;2023-04-28T03:56:40;9.67;;;4.57;;
14736;SDS011;7459;53.590;10.062;2023-04-28T03:59:06;11.93;;;5.35;;
14736;SDS011;7459;53.590;10.062;2023-04-28T04:01:35;10.88;;;4.25;;
14736;SDS011;7459;53.590;10.062;2023-04-28T04:04:01;8.00;;;4.10;;
14736;SDS011;7459;53.590;10.062;2023-04-28T04:06:27;17.23;;;4.82;;
14736;SDS011;7459;53.590;10.062;2023-04-28T04:08:52;11.33;;;4.03;;
14736;SDS011;7459;53.590;10.062;2023-04-28T04:11:18;8.77;;;4.30;;
14736;SDS011;7459;53.590;10.062;2023-04-28T04:13:44;9.13;;;4.43;;
14736;SDS011;7459;53.590;10.062;2023-04-28T04:16:10;9.90;;;4.10;;
14736;SDS011;7459;53.590;10.062;2023-04-28T04:18:36;10.25;;;4.45;;
14736;SDS011;7459;53.590;10.062;2023-04-28T04:21:02;11.60;;;4.63;;
14736;SDS011;7459;53.590;10.062;2023-04-28T04:23:27;9.10;;;3.67;;
14736;SDS011;7459;53.590;10.062;2023-04-28T04:25:53;9.00;;;3.37;;
14736;SDS011;7459;53.590;10.062;2023-04-28T04:28:19;10.32;;;4.38;;
14736;SDS011;7459;53.590;10.062;2023-04-28T04:30:45;9.00;;;3.97;;
14736;SDS011;7459;53.590;10.062;2023-04-28T04:33:11;7.70;;;3.20;;
14736;SDS011;7459;53.590;10.062;2023-04-28T04:35:37;11.30;;;4.03;;
14736;SDS011;7459;53.590;10.062;2023-04-28T04:38:03;7.35;;;3.35;;
14736;SDS011;7459;53.590;10.062;2023-04-28T04:40:29;11.60;;;4.10;;
14736;SDS011;7459;53.590;10.062;2023-04-28T04:42:54;9.30;;;4.45;;
14736;SDS011;7459;53.590;10.062;2023-04-28T04:45:20;9.27;;;3.97;;
14736;SDS011;7459;53.590;10.062;2023-04-28T04:47:46;9.00;;;4.22;;
14736;SDS011;7459;53.590;10.062;2023-04-28T04:50:12;8.10;;;3.30;;
14736;SDS011;7459;53.590;10.062;2023-04-28T04:52:37;12.90;;;3.92;;
14736;SDS011;7459;53.590;10.062;2023-04-28T04:55:03;8.60;;;4.07;;
14736;SDS011;7459;53.590;10.062;2023-04-28T04:57:30;10.00;;;3.97;;
14736;SDS011;7459;53.590;10.062;2023-04-28T04:59:56;10.77;;;4.20;;
14736;SDS011;7459;53.590;10.062;2023-04-28T05:02:21;8.33;;;3.30;;
14736;SDS011;7459;53.590;10.062;2023-04-28T05:04:47;9.52;;;3.60;;
14736;SDS011;7459;53.590;10.062;2023-04-28T05:07:13;7.53;;;3.50;;
14736;SDS011;7459;53.590;10.062;2023-04-28T05:09:38;8.20;;;4.00;;
14736;SDS011;7459;53.590;10.062;2023-04-28T05:12:04;7.15;;;3.22;;
14736;SDS011;7459;53.590;10.062;2023-04-28T05:14:30;7.03;;;3.60;;
14736;SDS011;7459;53.590;10.062;2023-04-28T05:16:56;6.97;;;2.80;;
14736;SDS011;7459;53.590;10.062;2023-04-28T05:19:22;8.98;;;3.40;;
14736;SDS011;7459;53.590;10.062;2023-04-28T05:21:48;7.27;;;3.10;;
14736;SDS011;7459;53.590;10.062;2023-04-28T05:24:14;7.07;;;3.00;;
14736;SDS011;7459;53.590;10.062;2023-04-28T05:26:39;9.90;;;3.85;;
14736;SDS011;7459;53.590;10.062;2023-04-28T05:29:05;9.70;;;3.07;;
14736;SDS011;7459;53.590;10.062;2023-04-28T05:31:31;9.30;;;3.80;;
14736;SDS011;7459;53.590;10.062;2023-04-28T05:33:57;7.47;;;3.40;;
14736;SDS011;7459;53.590;10.062;2023-04-28T05:36:22;7.20;;;2.95;;
14736;SDS011;7459;53.590;10.062;2023-04-28T05:38:48;9.35;;;3.35;;
14736;SDS011;7459;53.590;10.062;2023-04-28T05:41:14;9.10;;;3.63;;
14736;SDS011;7459;53.590;10.062;2023-04-28T05:43:40;8.45;;;3.00;;
14736;SDS011;7459;53.590;10.062;2023-04-28T05:46:05;7.90;;;2.80;;
14736;SDS011;7459;53.590;10.062;2023-04-28T05:48:31;7.85;;;3.03;;
14736;SDS011;7459;53.590;10.062;2023-04-28T05:50:57;9.30;;;3.13;;
14736;SDS011;7459;53.590;10.062;2023-04-28T05:53:23;7.13;;;3.10;;
14736;SDS011;7459;53.590;10.062;2023-04-28T05:55:48;6.33;;;2.80;;
14736;SDS011;7459;53.590;10.062;2023-04-28T05:58:14;8.10;;;3.20;;
14736;SDS011;7459;53.590;10.062;2023-04-28T06:00:40;8.30;;;2.93;;
14736;SDS011;7459;53.590;10.062;2023-04-28T06:03:05;8.10;;;2.97;;
14736;SDS011;7459;53.590;10.062;2023-04-28T06:05:34;9.73;;;2.85;;
14736;SDS011;7459;53.590;10.062;2023-04-28T06:08:01;7.50;;;2.90;;
14736;SDS011;7459;53.590;10.062;2023-04-28T06:10:27;7.90;;;2.78;;
14736;SDS011;7459;53.590;10.062;2023-04-28T06:12:53;9.55;;;3.38;;
14736;SDS011;7459;53.590;10.062;2023-04-28T06:15:19;7.70;;;3.43;;
14736;SDS011;7459;53.590;10.062;2023-04-28T06:17:44;7.50;;;3.08;;
14736;SDS011;7459;53.590;10.062;2023-04-28T06:20:12;12.48;;;3.08;;
14736;SDS011;7459;53.590;10.062;2023-04-28T06:22:38;7.97;;;2.97;;
14736;SDS011;7459;53.590;10.062;2023-04-28T06:25:05;5.85;;;2.17;;
14736;SDS011;7459;53.590;10.062;2023-04-28T06:27:31;8.60;;;2.65;;
14736;SDS011;7459;53.590;10.062;2023-04-28T06:29:57;6.40;;;2.50;;
14736;SDS011;7459;53.590;10.062;2023-04-28T06:32:23;4.60;;;1.92;;
14736;SDS011;7459;53.590;10.062;2023-04-28T06:34:49;5.60;;;2.40;;
14736;SDS011;7459;53.590;10.062;2023-04-28T06:37:14;7.47;;;3.03;;
14736;SDS011;7459;53.590;10.062;2023-04-28T06:39:40;5.78;;;2.20;;
14736;SDS011;7459;53.590;10.062;2023-04-28T06:42:06;5.45;;;2.30;;
14736;SDS011;7459;53.590;10.062;2023-04-28T06:44:32;6.77;;;1.90;;
14736;SDS011;7459;53.590;10.062;2023-04-28T06:46:58;8.05;;;2.10;;
14736;SDS011;7459;53.590;10.062;2023-04-28T06:49:24;9.10;;;1.77;;
14736;SDS011;7459;53.590;10.062;2023-04-28T06:51:49;5.93;;;2.45;;
14736;SDS011;7459;53.590;10.062;2023-04-28T06:54:15;5.72;;;2.08;;
14736;SDS011;7459;53.590;10.062;2023-04-28T06:56:41;5.53;;;2.13;;
14736;SDS011;7459;53.590;10.062;2023-04-28T06:59:06;6.18;;;1.88;;
14736;SDS011;7459;53.590;10.062;2023-04-28T07:01:32;4.97;;;1.80;;
14736;SDS011;7459;53.590;10.062;2023-04-28T07:03:58;5.63;;;2.13;;
14736;SDS011;7459;53.590;10.062;2023-04-28T07:06:23;6.07;;;1.83;;
14736;SDS011;7459;53.590;10.062;2023-04-28T07:08:51;4.80;;;1.65;;
14736;SDS011;7459;53.590;10.062;2023-04-28T07:11:17;5.20;;;2.00;;
14736;SDS011;7459;53.590;10.062;2023-04-28T07:13:43;5.03;;;1.77;;
14736;SDS011;7459;53.590;10.062;2023-04-28T07:16:13;5.50;;;1.65;;
14736;SDS011;7459;53.590;10.062;2023-04-28T07:18:39;5.40;;;1.83;;
14736;SDS011;7459;53.590;10.062;2023-04-28T07:21:04;6.05;;;2.47;;
14736;SDS011;7459;53.590;10.062;2023-04-28T07:23:30;6.65;;;1.58;;
14736;SDS011;7459;53.590;10.062;2023-04-28T07:25:56;4.27;;;1.50;;
14736;SDS011;7459;53.590;10.062;2023-04-28T07:28:22;4.38;;;1.85;;
14736;SDS011;7459;53.590;10.062;2023-04-28T07:30:48;6.88;;;2.00;;
14736;SDS011;7459;53.590;10.062;2023-04-28T07:33:14;6.20;;;1.83;;
14736;SDS011;7459;53.590;10.062;2023-04-28T07:35:39;14.20;;;2.00;;
14736;SDS011;7459;53.590;10.062;2023-04-28T07:38:05;4.27;;;1.43;;
14736;SDS011;7459;53.590;10.062;2023-04-28T07:40:31;3.87;;;1.77;;
14736;SDS011;7459;53.590;10.062;2023-04-28T07:42:57;8.52;;;2.17;;
14736;SDS011;7459;53.590;10.062;2023-04-28T07:45:22;6.57;;;2.13;;
14736;SDS011;7459;53.590;10.062;2023-04-28T07:47:48;6.45;;;1.88;;
14736;SDS011;7459;53.590;10.062;2023-04-28T07:50:14;5.93;;;1.57;;
14736;SDS011;7459;53.590;10.062;2023-04-28T07:52:41;8.10;;;1.88;;
14736;SDS011;7459;53.590;10.062;2023-04-28T07:55:07;13.13;;;2.33;;
14736;SDS011;7459;53.590;10.062;2023-04-28T07:57:33;12.18;;;2.20;;
14736;SDS011;7459;53.590;10.062;2023-04-28T07:59:59;7.03;;;2.07;;
14736;SDS011;7459;53.590;10.062;2023-04-28T08:02:25;8.57;;;1.90;;
14736;SDS011;7459;53.590;10.062;2023-04-28T08:04:51;5.30;;;1.92;;
14736;SDS011;7459;53.590;10.062;2023-04-28T08:07:17;5.13;;;1.70;;
14736;SDS011;7459;53.590;10.062;2023-04-28T08:09:43;5.38;;;1.92;;
14736;SDS011;7459;53.590;10.062;2023-04-28T08:12:11;7.25;;;1.60;;
14736;SDS011;7459;53.590;10.062;2023-04-28T08:14:38;6.33;;;1.80;;
14736;SDS011;7459;53.590;10.062;2023-04-28T08:17:04;5.07;;;1.70;;
14736;SDS011;7459;53.590;10.062;2023-04-28T08:19:30;4.37;;;1.73;;
14736;SDS011;7459;53.590;10.062;2023-04-28T08:21:55;5.90;;;1.90;;
14736;SDS011;7459;53.590;10.062;2023-04-28T08:24:21;5.90;;;2.17;;
14736;SDS011;7459;53.590;10.062;2023-04-28T08:26:47;7.32;;;1.90;;
14736;SDS011;7459;53.590;10.062;2023-04-28T08:29:13;5.97;;;1.95;;
14736;SDS011;7459;53.590;10.062;2023-04-28T08:31:38;6.03;;;1.70;;
14736;SDS011;7459;53.590;10.062;2023-04-28T08:34:04;4.07;;;1.70;;
14736;SDS011;7459;53.590;10.062;2023-04-28T08:36:30;5.27;;;1.90;;
14736;SDS011;7459;53.590;10.062;2023-04-28T08:38:57;3.67;;;1.52;;
14736;SDS011;7459;53.590;10.062;2023-04-28T08:41:25;5.60;;;2.00;;
14736;SDS011;7459;53.590;10.062;2023-04-28T08:43:52;5.50;;;1.57;;
14736;SDS011;7459;53.590;10.062;2023-04-28T08:46:18;5.65;;;1.85;;
14736;SDS011;7459;53.590;10.062;2023-04-28T08:48:45;5.28;;;2.20;;
14736;SDS011;7459;53.590;10.062;2023-04-28T08:51:32;5.00;;;1.90;;
14736;SDS011;7459;53.590;10.062;2023-04-28T08:54:01;7.20;;;2.30;;
14736;SDS011;7459;53.590;10.062;2023-04-28T08:56:34;5.07;;;1.90;;
14736;SDS011;7459;53.590;10.062;2023-04-28T08:59:03;6.03;;;1.88;;
14736;SDS011;7459;53.590;10.062;2023-04-28T09:01:29;6.28;;;2.13;;
14736;SDS011;7459;53.590;10.062;2023-04-28T09:03:56;7.45;;;2.30;;
14736;SDS011;7459;53.590;10.062;2023-04-28T09:06:21;11.13;;;2.60;;
14736;SDS011;7459;53.590;10.062;2023-04-28T09:08:47;5.00;;;1.73;;
14736;SDS011;7459;53.590;10.062;2023-04-28T09:11:13;5.13;;;2.15;;
14736;SDS011;7459;53.590;10.062;2023-04-28T09:13:41;7.77;;;2.20;;
14736;SDS011;7459;53.590;10.062;2023-04-28T09:16:07;5.57;;;2.00;;
14736;SDS011;7459;53.590;10.062;2023-04-28T09:18:33;5.27;;;2.13;;
14736;SDS011;7459;53.590;10.062;2023-04-28T09:21:05;5.53;;;2.05;;
14736;SDS011;7459;53.590;10.062;2023-04-28T09:23:32;7.47;;;2.22;;
14736;SDS011;7459;53.590;10.062;2023-04-28T09:25:59;5.75;;;2.08;;
14736;SDS011;7459;53.590;10.062;2023-04-28T09:28:31;4.93;;;2.43;;
14736;SDS011;7459;53.590;10.062;2023-04-28T09:30:58;6.78;;;2.30;;
14736;SDS011;7459;53.590;10.062;2023-04-28T09:33:25;5.85;;;2.50;;
14736;SDS011;7459;53.590;10.062;2023-04-28T09:35:51;7.32;;;2.50;;
14736;SDS011;7459;53.590;10.062;2023-04-28T09:38:18;7.68;;;2.72;;
14736;SDS011;7459;53.590;10.062;2023-04-28T09:40:55;8.93;;;2.23;;
14736;SDS011;7459;53.590;10.062;2023-04-28T09:43:26;11.23;;;2.45;;
14736;SDS011;7459;53.590;10.062;2023-04-28T09:45:58;7.75;;;1.95;;
14736;SDS011;7459;53.590;10.062;2023-04-28T09:48:37;5.97;;;2.38;;
14736;SDS011;7459;53.590;10.062;2023-04-28T09:51:04;7.10;;;2.53;;
14736;SDS011;7459;53.590;10.062;2023-04-28T09:53:31;6.87;;;2.37;;
14736;SDS011;7459;53.590;10.062;2023-04-28T09:55:59;9.35;;;2.97;;
14736;SDS011;7459;53.590;10.062;2023-04-28T09:58:27;5.35;;;2.22;;
14736;SDS011;7459;53.590;10.062;2023-04-28T10:00:55;6.80;;;2.38;;
14736;SDS011;7459;53.590;10.062;2023-04-28T10:03:26;8.45;;;2.60;;
14736;SDS011;7459;53.590;10.062;2023-04-28T10:05:56;7.77;;;2.17;;
14736;SDS011;7459;53.590;10.062;2023-04-28T10:08:23;6.68;;;2.25;;
14736;SDS011;7459;53.590;10.062;2023-04-28T10:10:51;6.57;;;2.45;;
14736;SDS011;7459;53.590;10.062;2023-04-28T10:13:18;4.85;;;2.47;;
14736;SDS011;7459;53.590;10.062;2023-04-28T10:15:46;6.00;;;2.60;;
14736;SDS011;7459;53.590;10.062;2023-04-28T10:18:13;9.00;;;2.70;;
14736;SDS011;7459;53.590;10.062;2023-04-28T10:20:41;8.35;;;2.53;;
14736;SDS011;7459;53.590;10.062;2023-04-28T10:26:08;5.93;;;2.25;;
14736;SDS011;7459;53.590;10.062;2023-04-28T10:28:43;6.95;;;2.60;;
14736;SDS011;7459;53.590;10.062;2023-04-28T10:31:16;7.60;;;2.50;;
14736;SDS011;7459;53.590;10.062;2023-04-28T10:33:45;6.25;;;2.67;;
14736;SDS011;7459;53.590;10.062;2023-04-28T10:36:17;6.88;;;2.60;;
14736;SDS011;7459;53.590;10.062;2023-04-28T10:39:23;7.25;;;3.15;;
14736;SDS011;7459;53.590;10.062;2023-04-28T10:41:49;7.23;;;2.80;;
14736;SDS011;7459;53.590;10.062;2023-04-28T10:47:02;7.07;;;2.95;;
14736;SDS011;7459;53.590;10.062;2023-04-28T11:00:43;6.95;;;3.38;;
14736;SDS011;7459;53.590;10.062;2023-04-28T11:06:28;6.97;;;2.73;;
14736;SDS011;7459;53.590;10.062;2023-04-28T11:09:02;6.80;;;3.03;;
14736;SDS011;7459;53.590;10.062;2023-04-28T11:11:37;7.68;;;3.13;;
14736;SDS011;7459;53.590;10.062;2023-04-28T11:16:49;6.78;;;3.05;;
14736;SDS011;7459;53.590;10.062;2023-04-28T11:19:23;5.80;;;2.63;;
14736;SDS011;7459;53.590;10.062;2023-04-28T11:22:00;9.32;;;3.10;;
14736;SDS011;7459;53.590;10.062;2023-04-28T11:24:37;6.65;;;3.08;;
14736;SDS011;7459;53.590;10.062;2023-04-28T11:27:03;8.90;;;3.13;;
14736;SDS011;7459;53.590;10.062;2023-04-28T11:32:02;6.32;;;2.33;;
14736;SDS011;7459;53.590;10.062;2023-04-28T11:34:30;7.20;;;3.20;;
14736;SDS011;7459;53.590;10.062;2023-04-28T11:36:55;6.57;;;2.80;;
14736;SDS011;7459;53.590;10.062;2023-04-28T11:39:39;6.47;;;3.28;;
14736;SDS011;7459;53.590;10.062;2023-04-28T11:42:08;6.57;;;3.33;;
14736;SDS011;7459;53.590;10.062;2023-04-28T11:44:34;6.70;;;2.93;;
14736;SDS011;7459;53.590;10.062;2023-04-28T11:47:01;8.05;;;4.10;;
14736;SDS011;7459;53.590;10.062;2023-04-28T11:49:28;6.78;;;3.15;;
14736;SDS011;7459;53.590;10.062;2023-04-28T11:52:15;8.65;;;3.83;;
14736;SDS011;7459;53.590;10.062;2023-04-28T11:54:41;11.40;;;3.83;;
14736;SDS011;7459;53.590;10.062;2023-04-28T11:57:17;8.30;;;3.70;;
14736;SDS011;7459;53.590;10.062;2023-04-28T11:59:45;17.48;;;3.63;;
14736;SDS011;7459;53.590;10.062;2023-04-28T12:02:11;8.15;;;3.40;;
14736;SDS011;7459;53.590;10.062;2023-04-28T12:04:38;8.53;;;2.97;;
14736;SDS011;7459;53.590;10.062;2023-04-28T12:14:55;8.35;;;3.72;;
14736;SDS011;7459;53.590;10.062;2023-04-28T12:17:26;8.40;;;3.43;;
14736;SDS011;7459;53.590;10.062;2023-04-28T12:19:55;6.55;;;3.10;;
14736;SDS011;7459;53.590;10.062;2023-04-28T12:22:23;6.70;;;2.80;;
14736;SDS011;7459;53.590;10.062;2023-04-28T12:25:04;9.50;;;3.20;;
14736;SDS011;7459;53.590;10.062;2023-04-28T12:27:33;6.93;;;3.10;;
14736;SDS011;7459;53.590;10.062;2023-04-28T12:30:02;8.90;;;3.30;;
14736;SDS011;7459;53.590;10.062;2023-04-28T12:32:48;11.02;;;3.10;;
14736;SDS011;7459;53.590;10.062;2023-04-28T12:35:15;8.77;;;3.30;;
14736;SDS011;7459;53.590;10.062;2023-04-28T12:37:41;5.97;;;2.63;;
14736;SDS011;7459;53.590;10.062;2023-04-28T12:40:08;8.18;;;2.90;;
14736;SDS011;7459;53.590;10.062;2023-04-28T12:42:34;7.23;;;2.67;;
14736;SDS011;7459;53.590;10.062;2023-04-28T12:45:00;6.90;;;2.83;;
14736;SDS011;7459;53.590;10.062;2023-04-28T12:47:26;8.00;;;2.97;;
14736;SDS011;7459;53.590;10.062;2023-04-28T12:49:52;7.95;;;3.33;;
14736;SDS011;7459;53.590;10.062;2023-04-28T12:52:19;10.67;;;3.27;;
14736;SDS011;7459;53.590;10.062;2023-04-28T12:54:45;12.55;;;3.65;;
14736;SDS011;7459;53.590;10.062;2023-04-28T12:57:14;7.85;;;3.20;;
14736;SDS011;7459;53.590;10.062;2023-04-28T12:59:41;7.03;;;3.10;;
14736;SDS011;7459;53.590;10.062;2023-04-28T13:02:07;10.73;;;3.50;;
14736;SDS011;7459;53.590;10.062;2023-04-28T13:04:33;8.45;;;3.17;;
14736;SDS011;7459;53.590;10.062;2023-04-28T13:06:59;12.10;;;3.47;;
14736;SDS011;7459;53.590;10.062;2023-04-28T13:09:26;10.10;;;3.13;;
14736;SDS011;7459;53.590;10.062;2023-04-28T13:11:52;9.00;;;3.20;;
14736;SDS011;7459;53.590;10.062;2023-04-28T13:14:18;7.88;;;2.70;;
14736;SDS011;7459;53.590;10.062;2023-04-28T13:16:44;11.48;;;3.50;;
14736;SDS011;7459;53.590;10.062;2023-04-28T13:19:11;7.90;;;3.10;;
14736;SDS011;7459;53.590;10.062;2023-04-28T13:21:39;6.60;;;2.93;;
14736;SDS011;7459;53.590;10.062;2023-04-28T13:24:08;8.82;;;3.40;;
14736;SDS011;7459;53.590;10.062;2023-04-28T13:26:35;8.75;;;3.50;;
14736;SDS011;7459;53.590;10.062;2023-04-28T13:29:02;8.25;;;2.80;;
14736;SDS011;7459;53.590;10.062;2023-04-28T13:31:28;9.57;;;2.92;;
14736;SDS011;7459;53.590;10.062;2023-04-28T13:33:55;9.27;;;3.00;;
14736;SDS011;7459;53.590;10.062;2023-04-28T13:36:21;7.50;;;2.97;;
14736;SDS011;7459;53.590;10.062;2023-04-28T13:38:47;11.27;;;3.67;;
14736;SDS011;7459;53.590;10.062;2023-04-28T13:41:14;6.80;;;3.03;;
14736;SDS011;7459;53.590;10.062;2023-04-28T13:43:41;11.88;;;4.10;;
14736;SDS011;7459;53.590;10.062;2023-04-28T13:46:07;7.50;;;3.70;;
14736;SDS011;7459;53.590;10.062;2023-04-28T13:48:36;8.07;;;3.47;;
14736;SDS011;7459;53.590;10.062;2023-04-28T13:51:02;9.30;;;3.75;;
14736;SDS011;7459;53.590;10.062;2023-04-28T13:53:28;9.77;;;3.50;;
14736;SDS011;7459;53.590;10.062;2023-04-28T13:55:55;7.90;;;3.92;;
14736;SDS011;7459;53.590;10.062;2023-04-28T13:58:27;10.07;;;3.83;;
14736;SDS011;7459;53.590;10.062;2023-04-28T14:00:54;9.57;;;3.65;;
14736;SDS011;7459;53.590;10.062;2023-04-28T14:03:21;8.48;;;3.33;;
14736;SDS011;7459;53.590;10.062;2023-04-28T14:05:48;8.45;;;3.53;;
14736;SDS011;7459;53.590;10.062;2023-04-28T14:08:16;8.90;;;3.78;;
14736;SDS011;7459;53.590;10.062;2023-04-28T14:10:42;11.43;;;4.00;;
14736;SDS011;7459;53.590;10.062;2023-04-28T14:13:08;6.72;;;3.35;;
14736;SDS011;7459;53.590;10.062;2023-04-28T14:15:35;10.25;;;3.45;;
14736;SDS011;7459;53.590;10.062;2023-04-28T14:18:01;9.32;;;3.63;;
14736;SDS011;7459;53.590;10.062;2023-04-28T14:20:27;9.07;;;4.30;;
14736;SDS011;7459;53.590;10.062;2023-04-28T14:22:53;9.77;;;4.03;;
14736;SDS011;7459;53.590;10.062;2023-04-28T14:25:18;7.95;;;3.75;;
14736;SDS011;7459;53.590;10.062;2023-04-28T14:27:44;7.17;;;3.10;;
14736;SDS011;7459;53.590;10.062;2023-04-28T14:30:13;8.93;;;3.45;;
14736;SDS011;7459;53.590;10.062;2023-04-28T14:32:39;11.00;;;4.27;;
14736;SDS011;7459;53.590;10.062;2023-04-28T14:35:05;12.27;;;3.63;;
14736;SDS011;7459;53.590;10.062;2023-04-28T14:37:31;8.98;;;3.92;;
14736;SDS011;7459;53.590;10.062;2023-04-28T14:39:57;7.50;;;3.67;;
14736;SDS011;7459;53.590;10.062;2023-04-28T14:42:26;7.43;;;3.28;;
14736;SDS011;7459;53.590;10.062;2023-04-28T14:44:55;9.40;;;4.20;;
14736;SDS011;7459;53.590;10.062;2023-04-28T14:47:21;9.20;;;4.20;;
14736;SDS011;7459;53.590;10.062;2023-04-28T14:49:48;11.13;;;4.57;;
14736;SDS011;7459;53.590;10.062;2023-04-28T14:52:14;10.97;;;4.90;;
14736;SDS011;7459;53.590;10.062;2023-04-28T14:54:39;11.53;;;4.50;;
14736;SDS011;7459;53.590;10.062;2023-04-28T14:57:05;10.88;;;4.35;;
14736;SDS011;7459;53.590;10.062;2023-04-28T14:59:32;10.75;;;4.20;;
14736;SDS011;7459;53.590;10.062;2023-04-28T15:01:59;11.27;;;4.23;;
14736;SDS011;7459;53.590;10.062;2023-04-28T15:04:25;9.93;;;4.53;;
14736;SDS011;7459;53.590;10.062;2023-04-28T15:06:54;7.78;;;3.90;;
14736;SDS011;7459;53.590;10.062;2023-04-28T15:09:21;10.50;;;4.65;;
14736;SDS011;7459;53.590;10.062;2023-04-28T15:11:47;10.23;;;4.53;;
14736;SDS011;7459;53.590;10.062;2023-04-28T15:14:13;8.77;;;4.18;;
14736;SDS011;7459;53.590;10.062;2023-04-28T15:16:39;9.05;;;4.35;;